sensor_id;sensor_type;location;lat;lon;timestamp;temperature;humidity
81524;DHT22;70954;49.500;10.416;2023-11-22T00:00:07;7.40;65.40
81524;DHT22;70954;49.500;10.416;2023-11-22T00:02:33;7.30;65.50
81524;DHT22;70954;49.500;10.416;2023-11-22T00:04:59;7.30;65.40
81524;DHT22;70954;49.500;10.416;2023-11-22T00:07:24;7.20;65.40
81524;DHT22;70954;49.500;10.416;2023-11-22T00:09:50;7.20;65.40
81524;DHT22;70954;49.500;10.416;2023-11-22T00:12:15;7.20;65.40
81524;DHT22;70954;49.500;10.416;2023-11-22T00:14:41;7.20;65.00
81524;DHT22;70954;49.500;10.416;2023-11-22T00:17:06;7.20;65.00
81524;DHT22;70954;49.500;10.416;2023-11-22T00:19:31;7.20;64.90
81524;DHT22;70954;49.500;10.416;2023-11-22T00:21:57;7.20;64.80
81524;DHT22;70954;49.500;10.416;2023-11-22T00:24:22;7.20;64.50
81524;DHT22;70954;49.500;10.416;2023-11-22T00:26:48;7.10;64.40
81524;DHT22;70954;49.500;10.416;2023-11-22T00:29:13;7.00;64.40
81524;DHT22;70954;49.500;10.416;2023-11-22T00:31:39;7.00;64.10
81524;DHT22;70954;49.500;10.416;2023-11-22T00:34:04;7.00;64.20
81524;DHT22;70954;49.500;10.416;2023-11-22T00:36:30;6.90;64.10
81524;DHT22;70954;49.500;10.416;2023-11-22T00:38:55;6.90;64.10
81524;DHT22;70954;49.500;10.416;2023-11-22T00:41:21;6.90;64.10
81524;DHT22;70954;49.500;10.416;2023-11-22T00:43:46;6.80;64.10
81524;DHT22;70954;49.500;10.416;2023-11-22T00:46:12;6.80;64.10
81524;DHT22;70954;49.500;10.416;2023-11-22T00:48:37;6.70;64.20
81524;DHT22;70954;49.500;10.416;2023-11-22T00:51:03;6.70;64.20
81524;DHT22;70954;49.500;10.416;2023-11-22T00:53:28;6.70;64.10
81524;DHT22;70954;49.500;10.416;2023-11-22T00:55:54;6.60;63.80
81524;DHT22;70954;49.500;10.416;2023-11-22T00:58:19;6.60;63.80
81524;DHT22;70954;49.500;10.416;2023-11-22T01:00:45;6.50;63.80
81524;DHT22;70954;49.500;10.416;2023-11-22T01:03:10;6.50;63.70
81524;DHT22;70954;49.500;10.416;2023-11-22T01:05:35;6.40;63.70
81524;DHT22;70954;49.500;10.416;2023-11-22T01:08:01;6.40;63.70
81524;DHT22;70954;49.500;10.416;2023-11-22T01:10:26;6.30;63.60
81524;DHT22;70954;49.500;10.416;2023-11-22T01:12:52;6.30;63.90
81524;DHT22;70954;49.500;10.416;2023-11-22T01:15:17;6.20;64.00
81524;DHT22;70954;49.500;10.416;2023-11-22T01:17:43;6.20;64.00
81524;DHT22;70954;49.500;10.416;2023-11-22T01:20:08;6.10;64.20
81524;DHT22;70954;49.500;10.416;2023-11-22T01:22:34;6.10;64.30
81524;DHT22;70954;49.500;10.416;2023-11-22T01:24:59;6.10;64.40
81524;DHT22;70954;49.500;10.416;2023-11-22T01:27:25;6.10;64.50
81524;DHT22;70954;49.500;10.416;2023-11-22T01:29:50;6.00;64.50
81524;DHT22;70954;49.500;10.416;2023-11-22T01:32:16;6.00;64.40
81524;DHT22;70954;49.500;10.416;2023-11-22T01:34:41;6.00;64.50
81524;DHT22;70954;49.500;10.416;2023-11-22T01:37:06;6.00;64.50
81524;DHT22;70954;49.500;10.416;2023-11-22T01:39:32;6.00;64.60
81524;DHT22;70954;49.500;10.416;2023-11-22T01:41:57;6.00;64.70
81524;DHT22;70954;49.500;10.416;2023-11-22T01:44:23;6.00;64.80
81524;DHT22;70954;49.500;10.416;2023-11-22T01:46:48;5.90;64.90
81524;DHT22;70954;49.500;10.416;2023-11-22T01:49:14;6.00;65.00
81524;DHT22;70954;49.500;10.416;2023-11-22T01:51:40;5.90;64.90
81524;DHT22;70954;49.500;10.416;2023-11-22T01:54:07;5.90;64.80
81524;DHT22;70954;49.500;10.416;2023-11-22T01:56:35;5.90;64.80
81524;DHT22;70954;49.500;10.416;2023-11-22T01:59:01;5.90;64.70
81524;DHT22;70954;49.500;10.416;2023-11-22T02:01:27;5.90;64.70
81524;DHT22;70954;49.500;10.416;2023-11-22T02:03:52;5.90;64.80
81524;DHT22;70954;49.500;10.416;2023-11-22T02:06:18;5.90;65.00
81524;DHT22;70954;49.500;10.416;2023-11-22T02:08:43;5.90;65.00
81524;DHT22;70954;49.500;10.416;2023-11-22T02:11:09;5.80;65.10
81524;DHT22;70954;49.500;10.416;2023-11-22T02:13:34;5.90;65.20
81524;DHT22;70954;49.500;10.416;2023-11-22T02:16:00;5.90;65.10
81524;DHT22;70954;49.500;10.416;2023-11-22T02:18:26;5.90;65.20
81524;DHT22;70954;49.500;10.416;2023-11-22T02:20:51;5.90;65.10
81524;DHT22;70954;49.500;10.416;2023-11-22T02:23:17;5.90;65.10
81524;DHT22;70954;49.500;10.416;2023-11-22T02:25:42;5.90;65.00
81524;DHT22;70954;49.500;10.416;2023-11-22T02:28:08;5.90;65.10
81524;DHT22;70954;49.500;10.416;2023-11-22T02:30:34;5.90;65.10
81524;DHT22;70954;49.500;10.416;2023-11-22T02:33:00;5.90;65.20
81524;DHT22;70954;49.500;10.416;2023-11-22T02:35:25;5.90;65.20
81524;DHT22;70954;49.500;10.416;2023-11-22T02:37:51;5.90;65.20
81524;DHT22;70954;49.500;10.416;2023-11-22T02:40:20;5.90;65.10
81524;DHT22;70954;49.500;10.416;2023-11-22T02:42:47;5.90;65.00
81524;DHT22;70954;49.500;10.416;2023-11-22T02:45:14;5.90;65.10
81524;DHT22;70954;49.500;10.416;2023-11-22T02:47:40;5.90;65.20
81524;DHT22;70954;49.500;10.416;2023-11-22T02:50:05;5.90;65.30
81524;DHT22;70954;49.500;10.416;2023-11-22T02:52:31;5.90;65.40
81524;DHT22;70954;49.500;10.416;2023-11-22T02:54:57;5.90;65.40
81524;DHT22;70954;49.500;10.416;2023-11-22T02:57:23;5.90;65.40
81524;DHT22;70954;49.500;10.416;2023-11-22T02:59:48;5.90;65.30
81524;DHT22;70954;49.500;10.416;2023-11-22T03:02:14;5.90;65.30
81524;DHT22;70954;49.500;10.416;2023-11-22T03:04:39;5.90;65.20
81524;DHT22;70954;49.500;10.416;2023-11-22T03:07:04;5.90;65.10
81524;DHT22;70954;49.500;10.416;2023-11-22T03:09:30;5.90;65.20
81524;DHT22;70954;49.500;10.416;2023-11-22T03:11:56;5.90;65.10
81524;DHT22;70954;49.500;10.416;2023-11-22T03:14:21;5.90;65.10
81524;DHT22;70954;49.500;10.416;2023-11-22T03:16:47;5.90;65.00
81524;DHT22;70954;49.500;10.416;2023-11-22T03:19:12;5.90;65.00
81524;DHT22;70954;49.500;10.416;2023-11-22T03:21:38;5.90;65.00
81524;DHT22;70954;49.500;10.416;2023-11-22T03:24:04;5.90;65.00
81524;DHT22;70954;49.500;10.416;2023-11-22T03:26:30;5.90;65.10
81524;DHT22;70954;49.500;10.416;2023-11-22T03:28:55;5.90;65.20
81524;DHT22;70954;49.500;10.416;2023-11-22T03:31:21;5.90;65.20
81524;DHT22;70954;49.500;10.416;2023-11-22T03:33:46;5.80;65.20
81524;DHT22;70954;49.500;10.416;2023-11-22T03:36:12;5.80;65.30
81524;DHT22;70954;49.500;10.416;2023-11-22T03:38:39;5.90;65.30
81524;DHT22;70954;49.500;10.416;2023-11-22T03:41:05;5.90;65.30
81524;DHT22;70954;49.500;10.416;2023-11-22T03:43:30;5.90;65.40
81524;DHT22;70954;49.500;10.416;2023-11-22T03:45:56;5.90;65.20
81524;DHT22;70954;49.500;10.416;2023-11-22T03:48:21;5.90;65.30
81524;DHT22;70954;49.500;10.416;2023-11-22T03:50:47;5.90;65.30
81524;DHT22;70954;49.500;10.416;2023-11-22T03:53:12;5.90;65.30
81524;DHT22;70954;49.500;10.416;2023-11-22T03:55:37;5.90;65.20
81524;DHT22;70954;49.500;10.416;2023-11-22T03:58:03;5.90;65.30
81524;DHT22;70954;49.500;10.416;2023-11-22T04:00:28;5.90;65.40
81524;DHT22;70954;49.500;10.416;2023-11-22T04:02:54;5.90;65.40
81524;DHT22;70954;49.500;10.416;2023-11-22T04:05:19;5.90;65.50
81524;DHT22;70954;49.500;10.416;2023-11-22T04:07:45;5.90;65.40
81524;DHT22;70954;49.500;10.416;2023-11-22T04:10:10;5.90;65.40
81524;DHT22;70954;49.500;10.416;2023-11-22T04:12:36;5.90;65.30
81524;DHT22;70954;49.500;10.416;2023-11-22T04:15:01;5.90;65.30
81524;DHT22;70954;49.500;10.416;2023-11-22T04:17:26;5.90;65.30
81524;DHT22;70954;49.500;10.416;2023-11-22T04:19:52;6.00;65.40
81524;DHT22;70954;49.500;10.416;2023-11-22T04:22:17;6.00;65.30
81524;DHT22;70954;49.500;10.416;2023-11-22T04:24:43;6.00;65.30
81524;DHT22;70954;49.500;10.416;2023-11-22T04:27:08;5.90;65.20
81524;DHT22;70954;49.500;10.416;2023-11-22T04:29:34;5.90;65.40
81524;DHT22;70954;49.500;10.416;2023-11-22T04:31:59;6.00;65.40
81524;DHT22;70954;49.500;10.416;2023-11-22T04:34:25;5.90;65.30
81524;DHT22;70954;49.500;10.416;2023-11-22T04:36:50;5.90;65.10
81524;DHT22;70954;49.500;10.416;2023-11-22T04:39:15;5.90;65.20
81524;DHT22;70954;49.500;10.416;2023-11-22T04:41:41;5.90;65.20
81524;DHT22;70954;49.500;10.416;2023-11-22T04:44:06;5.90;64.80
81524;DHT22;70954;49.500;10.416;2023-11-22T04:46:32;5.90;64.90
81524;DHT22;70954;49.500;10.416;2023-11-22T04:48:59;5.80;64.50
81524;DHT22;70954;49.500;10.416;2023-11-22T04:51:24;5.80;64.30
81524;DHT22;70954;49.500;10.416;2023-11-22T04:53:50;5.80;64.30
81524;DHT22;70954;49.500;10.416;2023-11-22T04:56:15;5.80;63.70
81524;DHT22;70954;49.500;10.416;2023-11-22T04:58:41;5.70;64.00
81524;DHT22;70954;49.500;10.416;2023-11-22T05:01:06;5.70;63.90
81524;DHT22;70954;49.500;10.416;2023-11-22T05:03:32;5.70;64.00
81524;DHT22;70954;49.500;10.416;2023-11-22T05:05:57;5.60;63.90
81524;DHT22;70954;49.500;10.416;2023-11-22T05:08:23;5.60;64.00
81524;DHT22;70954;49.500;10.416;2023-11-22T05:10:48;5.60;64.00
81524;DHT22;70954;49.500;10.416;2023-11-22T05:13:14;5.60;64.00
81524;DHT22;70954;49.500;10.416;2023-11-22T05:15:39;5.50;64.00
81524;DHT22;70954;49.500;10.416;2023-11-22T05:18:04;5.60;64.10
81524;DHT22;70954;49.500;10.416;2023-11-22T05:20:30;5.50;64.10
81524;DHT22;70954;49.500;10.416;2023-11-22T05:22:55;5.50;64.00
81524;DHT22;70954;49.500;10.416;2023-11-22T05:25:21;5.50;64.00
81524;DHT22;70954;49.500;10.416;2023-11-22T05:27:46;5.50;64.00
81524;DHT22;70954;49.500;10.416;2023-11-22T05:30:12;5.50;63.90
81524;DHT22;70954;49.500;10.416;2023-11-22T05:32:37;5.50;64.00
81524;DHT22;70954;49.500;10.416;2023-11-22T05:35:03;5.40;63.90
81524;DHT22;70954;49.500;10.416;2023-11-22T05:37:28;5.40;63.90
81524;DHT22;70954;49.500;10.416;2023-11-22T05:39:54;5.40;64.00
81524;DHT22;70954;49.500;10.416;2023-11-22T05:42:19;5.40;63.90
81524;DHT22;70954;49.500;10.416;2023-11-22T05:44:45;5.40;63.70
81524;DHT22;70954;49.500;10.416;2023-11-22T05:47:10;5.30;63.60
81524;DHT22;70954;49.500;10.416;2023-11-22T05:49:36;5.30;63.60
81524;DHT22;70954;49.500;10.416;2023-11-22T05:52:01;5.30;63.60
81524;DHT22;70954;49.500;10.416;2023-11-22T05:54:26;5.30;63.80
81524;DHT22;70954;49.500;10.416;2023-11-22T05:56:52;5.30;63.90
81524;DHT22;70954;49.500;10.416;2023-11-22T05:59:17;5.30;63.80
81524;DHT22;70954;49.500;10.416;2023-11-22T06:01:43;5.30;63.90
81524;DHT22;70954;49.500;10.416;2023-11-22T06:04:08;5.30;63.70
81524;DHT22;70954;49.500;10.416;2023-11-22T06:06:34;5.30;63.90
81524;DHT22;70954;49.500;10.416;2023-11-22T06:08:59;5.30;63.90
81524;DHT22;70954;49.500;10.416;2023-11-22T06:11:25;5.30;63.70
81524;DHT22;70954;49.500;10.416;2023-11-22T06:13:50;5.30;63.60
81524;DHT22;70954;49.500;10.416;2023-11-22T06:16:15;5.20;63.70
81524;DHT22;70954;49.500;10.416;2023-11-22T06:18:41;5.20;63.60
81524;DHT22;70954;49.500;10.416;2023-11-22T06:21:07;5.20;63.50
81524;DHT22;70954;49.500;10.416;2023-11-22T06:23:33;5.20;63.40
81524;DHT22;70954;49.500;10.416;2023-11-22T06:25:58;5.20;63.30
81524;DHT22;70954;49.500;10.416;2023-11-22T06:28:24;5.10;63.30
81524;DHT22;70954;49.500;10.416;2023-11-22T06:30:49;5.10;63.20
81524;DHT22;70954;49.500;10.416;2023-11-22T06:33:14;5.10;63.20
81524;DHT22;70954;49.500;10.416;2023-11-22T06:35:40;5.10;63.20
81524;DHT22;70954;49.500;10.416;2023-11-22T06:38:05;5.00;63.10
81524;DHT22;70954;49.500;10.416;2023-11-22T06:40:31;5.00;63.10
81524;DHT22;70954;49.500;10.416;2023-11-22T06:42:56;5.00;63.00
81524;DHT22;70954;49.500;10.416;2023-11-22T06:45:22;5.00;63.00
81524;DHT22;70954;49.500;10.416;2023-11-22T06:47:47;5.00;63.00
81524;DHT22;70954;49.500;10.416;2023-11-22T06:50:13;5.00;63.00
81524;DHT22;70954;49.500;10.416;2023-11-22T06:52:39;5.00;63.00
81524;DHT22;70954;49.500;10.416;2023-11-22T06:55:08;4.90;63.10
81524;DHT22;70954;49.500;10.416;2023-11-22T06:57:34;4.90;63.00
81524;DHT22;70954;49.500;10.416;2023-11-22T07:00:00;4.90;63.00
81524;DHT22;70954;49.500;10.416;2023-11-22T07:02:26;4.80;62.80
81524;DHT22;70954;49.500;10.416;2023-11-22T07:04:51;4.80;62.80
81524;DHT22;70954;49.500;10.416;2023-11-22T07:07:16;4.70;62.80
81524;DHT22;70954;49.500;10.416;2023-11-22T07:09:42;4.70;62.70
81524;DHT22;70954;49.500;10.416;2023-11-22T07:12:08;4.70;62.70
81524;DHT22;70954;49.500;10.416;2023-11-22T07:14:33;4.70;62.80
81524;DHT22;70954;49.500;10.416;2023-11-22T07:16:59;4.70;62.90
81524;DHT22;70954;49.500;10.416;2023-11-22T07:19:24;4.70;62.90
81524;DHT22;70954;49.500;10.416;2023-11-22T07:21:50;4.60;63.00
81524;DHT22;70954;49.500;10.416;2023-11-22T07:24:15;4.50;62.90
81524;DHT22;70954;49.500;10.416;2023-11-22T07:26:41;4.50;62.80
81524;DHT22;70954;49.500;10.416;2023-11-22T07:29:07;4.50;62.80
81524;DHT22;70954;49.500;10.416;2023-11-22T07:31:32;4.50;62.80
81524;DHT22;70954;49.500;10.416;2023-11-22T07:33:58;4.50;62.80
81524;DHT22;70954;49.500;10.416;2023-11-22T07:36:23;4.50;62.90
81524;DHT22;70954;49.500;10.416;2023-11-22T07:38:49;4.50;62.70
81524;DHT22;70954;49.500;10.416;2023-11-22T07:41:14;4.50;62.80
81524;DHT22;70954;49.500;10.416;2023-11-22T07:43:39;4.40;62.90
81524;DHT22;70954;49.500;10.416;2023-11-22T07:46:06;4.40;63.00
81524;DHT22;70954;49.500;10.416;2023-11-22T07:48:32;4.40;63.00
81524;DHT22;70954;49.500;10.416;2023-11-22T07:50:57;4.40;62.90
81524;DHT22;70954;49.500;10.416;2023-11-22T07:53:23;4.40;63.10
81524;DHT22;70954;49.500;10.416;2023-11-22T07:55:48;4.40;63.00
81524;DHT22;70954;49.500;10.416;2023-11-22T07:58:14;4.30;63.10
81524;DHT22;70954;49.500;10.416;2023-11-22T08:00:40;4.30;62.80
81524;DHT22;70954;49.500;10.416;2023-11-22T08:03:06;4.30;62.90
81524;DHT22;70954;49.500;10.416;2023-11-22T08:05:31;4.30;63.00
81524;DHT22;70954;49.500;10.416;2023-11-22T08:07:57;4.30;63.10
81524;DHT22;70954;49.500;10.416;2023-11-22T08:10:22;4.30;63.00
81524;DHT22;70954;49.500;10.416;2023-11-22T08:12:48;4.30;62.90
81524;DHT22;70954;49.500;10.416;2023-11-22T08:15:14;4.30;63.00
81524;DHT22;70954;49.500;10.416;2023-11-22T08:17:41;4.30;63.00
81524;DHT22;70954;49.500;10.416;2023-11-22T08:20:07;4.30;63.10
81524;DHT22;70954;49.500;10.416;2023-11-22T08:22:32;4.30;63.10
81524;DHT22;70954;49.500;10.416;2023-11-22T08:24:58;4.40;63.10
81524;DHT22;70954;49.500;10.416;2023-11-22T08:27:23;4.30;63.20
81524;DHT22;70954;49.500;10.416;2023-11-22T08:29:49;4.40;63.20
81524;DHT22;70954;49.500;10.416;2023-11-22T08:32:14;4.30;63.00
81524;DHT22;70954;49.500;10.416;2023-11-22T08:34:40;4.30;63.10
81524;DHT22;70954;49.500;10.416;2023-11-22T08:37:07;4.40;63.00
81524;DHT22;70954;49.500;10.416;2023-11-22T08:39:32;4.40;63.00
81524;DHT22;70954;49.500;10.416;2023-11-22T08:41:58;4.40;62.90
81524;DHT22;70954;49.500;10.416;2023-11-22T08:44:23;4.30;62.80
81524;DHT22;70954;49.500;10.416;2023-11-22T08:46:48;4.30;62.80
81524;DHT22;70954;49.500;10.416;2023-11-22T08:49:14;4.30;62.60
81524;DHT22;70954;49.500;10.416;2023-11-22T08:51:39;4.30;62.80
81524;DHT22;70954;49.500;10.416;2023-11-22T08:54:05;4.30;63.00
81524;DHT22;70954;49.500;10.416;2023-11-22T08:56:30;4.30;63.00
81524;DHT22;70954;49.500;10.416;2023-11-22T08:58:56;4.30;62.90
81524;DHT22;70954;49.500;10.416;2023-11-22T09:01:21;4.30;63.00
81524;DHT22;70954;49.500;10.416;2023-11-22T09:03:47;4.30;62.90
81524;DHT22;70954;49.500;10.416;2023-11-22T09:06:12;4.30;62.80
81524;DHT22;70954;49.500;10.416;2023-11-22T09:08:37;4.30;62.90
81524;DHT22;70954;49.500;10.416;2023-11-22T09:11:03;4.30;63.00
81524;DHT22;70954;49.500;10.416;2023-11-22T09:13:28;4.30;63.20
81524;DHT22;70954;49.500;10.416;2023-11-22T09:15:54;4.30;63.20
81524;DHT22;70954;49.500;10.416;2023-11-22T09:18:19;4.30;63.40
81524;DHT22;70954;49.500;10.416;2023-11-22T09:20:45;4.30;63.30
81524;DHT22;70954;49.500;10.416;2023-11-22T09:23:10;4.30;63.30
81524;DHT22;70954;49.500;10.416;2023-11-22T09:25:36;4.30;63.20
81524;DHT22;70954;49.500;10.416;2023-11-22T09:28:01;4.30;63.30
81524;DHT22;70954;49.500;10.416;2023-11-22T09:30:28;4.40;63.20
81524;DHT22;70954;49.500;10.416;2023-11-22T09:32:54;4.40;63.40
81524;DHT22;70954;49.500;10.416;2023-11-22T09:35:19;4.40;63.30
81524;DHT22;70954;49.500;10.416;2023-11-22T09:37:45;4.40;63.30
81524;DHT22;70954;49.500;10.416;2023-11-22T09:40:11;4.40;63.20
81524;DHT22;70954;49.500;10.416;2023-11-22T09:42:36;4.40;63.40
81524;DHT22;70954;49.500;10.416;2023-11-22T09:45:02;4.40;63.40
81524;DHT22;70954;49.500;10.416;2023-11-22T09:47:30;4.40;63.30
81524;DHT22;70954;49.500;10.416;2023-11-22T09:49:57;4.50;63.30
81524;DHT22;70954;49.500;10.416;2023-11-22T09:52:28;4.50;63.20
81524;DHT22;70954;49.500;10.416;2023-11-22T09:54:54;4.50;63.20
81524;DHT22;70954;49.500;10.416;2023-11-22T09:57:20;4.50;63.00
81524;DHT22;70954;49.500;10.416;2023-11-22T09:59:50;4.50;63.00
81524;DHT22;70954;49.500;10.416;2023-11-22T10:02:17;4.50;62.90
81524;DHT22;70954;49.500;10.416;2023-11-22T10:04:42;4.50;62.90
81524;DHT22;70954;49.500;10.416;2023-11-22T10:07:08;4.50;62.90
81524;DHT22;70954;49.500;10.416;2023-11-22T10:09:34;4.50;62.80
81524;DHT22;70954;49.500;10.416;2023-11-22T10:12:05;4.50;62.80
81524;DHT22;70954;49.500;10.416;2023-11-22T10:14:31;4.50;63.00
81524;DHT22;70954;49.500;10.416;2023-11-22T10:17:00;4.50;63.00
81524;DHT22;70954;49.500;10.416;2023-11-22T10:19:26;4.50;62.90
81524;DHT22;70954;49.500;10.416;2023-11-22T10:22:05;4.50;62.80
81524;DHT22;70954;49.500;10.416;2023-11-22T10:24:31;4.50;62.70
81524;DHT22;70954;49.500;10.416;2023-11-22T10:26:57;4.50;62.80
81524;DHT22;70954;49.500;10.416;2023-11-22T10:29:25;4.50;62.70
81524;DHT22;70954;49.500;10.416;2023-11-22T10:31:51;4.50;62.40
81524;DHT22;70954;49.500;10.416;2023-11-22T10:34:19;4.50;62.60
81524;DHT22;70954;49.500;10.416;2023-11-22T10:36:46;4.50;62.70
81524;DHT22;70954;49.500;10.416;2023-11-22T10:39:12;4.50;62.60
81524;DHT22;70954;49.500;10.416;2023-11-22T10:41:37;4.60;62.50
81524;DHT22;70954;49.500;10.416;2023-11-22T10:44:04;4.60;62.40
81524;DHT22;70954;49.500;10.416;2023-11-22T10:46:30;4.60;62.30
81524;DHT22;70954;49.500;10.416;2023-11-22T10:48:56;4.60;62.50
81524;DHT22;70954;49.500;10.416;2023-11-22T10:51:23;4.60;62.50
81524;DHT22;70954;49.500;10.416;2023-11-22T10:53:51;4.70;62.60
81524;DHT22;70954;49.500;10.416;2023-11-22T10:56:19;4.70;62.60
81524;DHT22;70954;49.500;10.416;2023-11-22T10:58:54;4.70;62.50
81524;DHT22;70954;49.500;10.416;2023-11-22T11:01:23;4.70;62.50
81524;DHT22;70954;49.500;10.416;2023-11-22T11:06:27;4.70;62.10
81524;DHT22;70954;49.500;10.416;2023-11-22T11:09:02;4.70;62.20
81524;DHT22;70954;49.500;10.416;2023-11-22T11:11:29;4.70;62.50
81524;DHT22;70954;49.500;10.416;2023-11-22T11:13:56;4.80;62.40
81524;DHT22;70954;49.500;10.416;2023-11-22T11:16:22;4.80;62.40
81524;DHT22;70954;49.500;10.416;2023-11-22T11:18:48;4.90;62.40
81524;DHT22;70954;49.500;10.416;2023-11-22T11:21:15;4.90;62.40
81524;DHT22;70954;49.500;10.416;2023-11-22T11:23:40;4.90;62.40
81524;DHT22;70954;49.500;10.416;2023-11-22T11:26:18;5.00;62.50
81524;DHT22;70954;49.500;10.416;2023-11-22T11:28:45;5.00;62.20
81524;DHT22;70954;49.500;10.416;2023-11-22T11:31:11;5.00;62.30
81524;DHT22;70954;49.500;10.416;2023-11-22T11:36:33;5.00;61.80
81524;DHT22;70954;49.500;10.416;2023-11-22T11:39:05;5.10;61.80
81524;DHT22;70954;49.500;10.416;2023-11-22T11:41:34;5.10;62.10
81524;DHT22;70954;49.500;10.416;2023-11-22T11:44:04;5.10;62.10
81524;DHT22;70954;49.500;10.416;2023-11-22T11:46:32;5.10;62.00
81524;DHT22;70954;49.500;10.416;2023-11-22T11:48:58;5.20;61.80
81524;DHT22;70954;49.500;10.416;2023-11-22T11:51:25;5.30;61.70
81524;DHT22;70954;49.500;10.416;2023-11-22T11:53:52;5.30;61.70
81524;DHT22;70954;49.500;10.416;2023-11-22T11:56:17;5.30;61.60
81524;DHT22;70954;49.500;10.416;2023-11-22T11:58:44;5.30;61.70
81524;DHT22;70954;49.500;10.416;2023-11-22T12:01:15;5.30;61.60
81524;DHT22;70954;49.500;10.416;2023-11-22T12:03:41;5.30;61.50
81524;DHT22;70954;49.500;10.416;2023-11-22T12:06:06;5.30;61.10
81524;DHT22;70954;49.500;10.416;2023-11-22T12:08:32;5.30;61.00
81524;DHT22;70954;49.500;10.416;2023-11-22T12:10:57;5.30;61.00
81524;DHT22;70954;49.500;10.416;2023-11-22T12:13:23;5.30;61.00
81524;DHT22;70954;49.500;10.416;2023-11-22T12:15:48;5.30;61.00
81524;DHT22;70954;49.500;10.416;2023-11-22T12:18:15;5.30;61.00
81524;DHT22;70954;49.500;10.416;2023-11-22T12:20:40;5.40;60.80
81524;DHT22;70954;49.500;10.416;2023-11-22T12:23:06;5.30;61.10
81524;DHT22;70954;49.500;10.416;2023-11-22T12:25:31;5.40;61.20
81524;DHT22;70954;49.500;10.416;2023-11-22T12:27:57;5.40;61.10
81524;DHT22;70954;49.500;10.416;2023-11-22T12:30:33;5.40;61.10
81524;DHT22;70954;49.500;10.416;2023-11-22T12:33:04;5.40;60.80
81524;DHT22;70954;49.500;10.416;2023-11-22T12:35:30;5.50;61.00
81524;DHT22;70954;49.500;10.416;2023-11-22T12:37:55;5.50;60.80
81524;DHT22;70954;49.500;10.416;2023-11-22T12:40:21;5.50;60.70
81524;DHT22;70954;49.500;10.416;2023-11-22T12:42:50;5.50;60.80
81524;DHT22;70954;49.500;10.416;2023-11-22T12:45:23;5.50;60.80
81524;DHT22;70954;49.500;10.416;2023-11-22T12:47:49;5.50;60.80
81524;DHT22;70954;49.500;10.416;2023-11-22T12:50:34;5.50;60.80
81524;DHT22;70954;49.500;10.416;2023-11-22T12:53:07;5.50;60.70
81524;DHT22;70954;49.500;10.416;2023-11-22T12:55:33;5.50;60.80
81524;DHT22;70954;49.500;10.416;2023-11-22T12:57:59;5.50;60.80
81524;DHT22;70954;49.500;10.416;2023-11-22T13:00:24;5.50;60.70
81524;DHT22;70954;49.500;10.416;2023-11-22T13:02:50;5.50;60.70
81524;DHT22;70954;49.500;10.416;2023-11-22T13:05:15;5.50;60.70
81524;DHT22;70954;49.500;10.416;2023-11-22T13:07:41;5.50;60.50
81524;DHT22;70954;49.500;10.416;2023-11-22T13:10:06;5.50;60.50
81524;DHT22;70954;49.500;10.416;2023-11-22T13:12:32;5.50;60.30
81524;DHT22;70954;49.500;10.416;2023-11-22T13:14:57;5.50;60.40
81524;DHT22;70954;49.500;10.416;2023-11-22T13:17:23;5.50;60.30
81524;DHT22;70954;49.500;10.416;2023-11-22T13:19:48;5.50;60.40
81524;DHT22;70954;49.500;10.416;2023-11-22T13:22:13;5.50;60.30
81524;DHT22;70954;49.500;10.416;2023-11-22T13:24:39;5.50;60.20
81524;DHT22;70954;49.500;10.416;2023-11-22T13:27:04;5.50;60.30
81524;DHT22;70954;49.500;10.416;2023-11-22T13:29:30;5.50;60.20
81524;DHT22;70954;49.500;10.416;2023-11-22T13:31:55;5.50;60.30
81524;DHT22;70954;49.500;10.416;2023-11-22T13:34:21;5.50;60.40
81524;DHT22;70954;49.500;10.416;2023-11-22T13:36:46;5.50;60.40
81524;DHT22;70954;49.500;10.416;2023-11-22T13:39:11;5.50;60.30
81524;DHT22;70954;49.500;10.416;2023-11-22T13:41:37;5.50;60.30
81524;DHT22;70954;49.500;10.416;2023-11-22T13:44:02;5.50;60.30
81524;DHT22;70954;49.500;10.416;2023-11-22T13:46:28;5.50;60.40
81524;DHT22;70954;49.500;10.416;2023-11-22T13:48:53;5.50;60.30
81524;DHT22;70954;49.500;10.416;2023-11-22T13:51:19;5.50;60.20
81524;DHT22;70954;49.500;10.416;2023-11-22T13:53:44;5.50;60.20
81524;DHT22;70954;49.500;10.416;2023-11-22T13:56:10;5.50;59.80
81524;DHT22;70954;49.500;10.416;2023-11-22T13:58:35;5.50;59.50
81524;DHT22;70954;49.500;10.416;2023-11-22T14:01:01;5.50;59.30
81524;DHT22;70954;49.500;10.416;2023-11-22T14:03:26;5.40;59.30
81524;DHT22;70954;49.500;10.416;2023-11-22T14:05:52;5.30;59.20
81524;DHT22;70954;49.500;10.416;2023-11-22T14:08:17;5.30;59.50
81524;DHT22;70954;49.500;10.416;2023-11-22T14:10:43;5.10;59.80
81524;DHT22;70954;49.500;10.416;2023-11-22T14:13:08;5.10;60.00
81524;DHT22;70954;49.500;10.416;2023-11-22T14:15:34;5.10;59.90
81524;DHT22;70954;49.500;10.416;2023-11-22T14:18:00;5.00;60.10
81524;DHT22;70954;49.500;10.416;2023-11-22T14:20:25;5.00;60.20
81524;DHT22;70954;49.500;10.416;2023-11-22T14:22:51;5.00;60.30
81524;DHT22;70954;49.500;10.416;2023-11-22T14:25:16;5.00;60.40
81524;DHT22;70954;49.500;10.416;2023-11-22T14:27:43;5.00;60.50
81524;DHT22;70954;49.500;10.416;2023-11-22T14:30:11;5.00;60.60
81524;DHT22;70954;49.500;10.416;2023-11-22T14:32:36;5.00;60.50
81524;DHT22;70954;49.500;10.416;2023-11-22T14:35:03;5.00;60.40
81524;DHT22;70954;49.500;10.416;2023-11-22T14:37:29;5.00;60.40
81524;DHT22;70954;49.500;10.416;2023-11-22T14:39:55;5.00;60.40
81524;DHT22;70954;49.500;10.416;2023-11-22T14:42:20;5.00;60.50
81524;DHT22;70954;49.500;10.416;2023-11-22T14:44:45;4.90;60.40
81524;DHT22;70954;49.500;10.416;2023-11-22T14:47:11;4.90;60.50
81524;DHT22;70954;49.500;10.416;2023-11-22T14:49:36;4.90;60.50
81524;DHT22;70954;49.500;10.416;2023-11-22T14:52:02;4.90;60.50
81524;DHT22;70954;49.500;10.416;2023-11-22T14:54:27;4.90;60.50
81524;DHT22;70954;49.500;10.416;2023-11-22T14:56:53;4.90;60.50
81524;DHT22;70954;49.500;10.416;2023-11-22T14:59:18;4.90;60.50
81524;DHT22;70954;49.500;10.416;2023-11-22T15:01:44;4.90;60.50
81524;DHT22;70954;49.500;10.416;2023-11-22T15:04:09;4.90;60.40
81524;DHT22;70954;49.500;10.416;2023-11-22T15:06:35;4.90;60.20
81524;DHT22;70954;49.500;10.416;2023-11-22T15:09:00;4.90;60.30
81524;DHT22;70954;49.500;10.416;2023-11-22T15:11:26;4.90;60.30
81524;DHT22;70954;49.500;10.416;2023-11-22T15:13:51;4.80;60.30
81524;DHT22;70954;49.500;10.416;2023-11-22T15:16:16;4.80;60.40
81524;DHT22;70954;49.500;10.416;2023-11-22T15:18:42;4.70;60.50
81524;DHT22;70954;49.500;10.416;2023-11-22T15:21:08;4.70;60.60
81524;DHT22;70954;49.500;10.416;2023-11-22T15:23:33;4.70;60.60
81524;DHT22;70954;49.500;10.416;2023-11-22T15:25:59;4.70;60.70